Alibag, India

5:46 AM IST on September 03, 2014 (GMT +0530)
Chhatrapati Shivaji International | Change Station
CLOSE
Current Station
Airport
Location: Mumbai,
Elevation: 46 ft
Nearby Weather Stations

Elev 46 ft 19.10 °N, 72.86 °E | Updated 36 minutes ago

Haze
Haze
81 °F
Feels Like 88 °F
N
10
Wind Variable Wind from SSW

Today
High -- | Low -- °F
--% Chance of Precip.
Yesterday
High -- | Low -- °F
Precip. -- in
6:24 AM 6:51 PM
First Quarter, 56% visible
Pressure 29.59 in
Visibility 1.6 miles
Clouds Few 1000 ft
Scattered Clouds 1500 ft
Few 2500 ft
Mostly Cloudy 8000 ft
Heat Index 88 °F
Dew Point 79 °F
Humidity 94%
Rainfall 0.00 in
Snow Depth Not available.
UV 0 out of 12
Pollen Not available.
Air Quality Not available.
Flu Activity Not available.
METAR VABB 022340Z 20009KT 2500 HZ FEW010 SCT015 FEW025TCU BKN080 27/26 Q1002 TEMPO 1500 SHRA

More Conditions Fewer Conditions

Pressure 29.59 in
Visibility 1.6 miles
Clouds Few 1000 ft
Scattered Clouds 1500 ft
Few 2500 ft
Mostly Cloudy 8000 ft
Heat Index 88 °F
Dew Point 79 °F
Humidity 94%
Rainfall 0.00 in
Snow Depth Not available.
UV 0 out of 12
Pollen Not available.
Air Quality Not available.
Flu Activity Not available.
METAR VABB 022340Z 20009KT 2500 HZ FEW010 SCT015 FEW025TCU BKN080 27/26 Q1002 TEMPO 1500 SHRA

More Conditions Fewer Conditions

10-Day Weather Forecast

Almanac

Astronomy

Sep. 03, 2014 Rise Set
Actual Time 6:24 AM IST 6:51 PM IST
Civil Twilight 6:02 AM IST 7:13 PM IST
Nautical Twilight 5:36 AM IST 7:39 PM IST
Astronomical Twilight 5:10 AM IST 8:05 PM IST
Moon 1:41 PM IST No Moon Set
Length of Visible Light 13h 11m
Length of Day
12h 27m
Tomorrow will be 1m 1s shorter.
First Quarter, 56% of the Moon is Illuminated
Sep 2
First Quarter
Sep 8
Full
Sep 15
Last Quarter
Sep 24
New
Oct 1
First Quarter

Yesterday's Extremes

Country Highs Country Lows

Community

WunderPhotos

Upload Photos

1,749,807 photos uploaded!

Nearby

Snow Depth

Not available.

Earthquake Activity

City Distance Mag. Time & Date
No recent earthquake activity has been reported nearby.
Minimum magnitude displayed is 2.5.

Coastal Water Temperatures

Place Temperature
No Stations Reporting

Nearby Weather Stations